Time;durP1;ratioP1;P1;durP2;ratioP2;P2;SDS_P1;SDS_P2;PMS_P1;PMS_P2;Temp;Humidity;BMP_temperature;BMP_pressure;BME280_temperature;BME280_humidity;BME280_pressure;Samples;Min_cycle;Max_cycle;Signal;HPM_P1;HPM_P2
2022/01/22 00:00:23;;;;;;;7.67;3.53;;;;;;;-6.49;74.30;95682.58;1690043;85;21090;-72
2022/01/22 00:02:52;;;;;;;5.03;2.30;;;;;;;-6.44;73.90;95683.27;1690242;85;21051;-72
2022/01/22 00:05:21;;;;;;;4.40;2.53;;;;;;;-6.32;73.70;95679.13;1690035;85;21055;-73
2022/01/22 00:07:49;;;;;;;5.97;2.50;;;;;;;-6.18;73.36;95677.17;1690218;84;21042;-72
2022/01/22 00:10:19;;;;;;;4.43;2.80;;;;;;;-6.15;72.84;95680.78;1690279;85;21026;-72
2022/01/22 00:15:24;;;;;;;7.83;3.90;;;;;;;-6.04;72.60;95677.83;1690244;85;21050;-73
2022/01/22 00:17:52;;;;;;;4.87;3.17;;;;;;;-6.01;72.25;95678.84;1690497;85;21493;-73
2022/01/22 00:20:22;;;;;;;3.93;2.23;;;;;;;-5.96;72.37;95679.05;1689979;85;21162;-72
2022/01/22 00:22:49;;;;;;;8.77;3.20;;;;;;;-5.94;71.62;95691.56;1690153;84;21497;-72
2022/01/22 00:25:19;;;;;;;8.63;3.53;;;;;;;-5.91;71.78;95681.39;1690256;85;21030;-72
2022/01/22 00:27:48;;;;;;;8.97;3.47;;;;;;;-5.85;71.78;95677.80;1690189;85;21521;-72
2022/01/22 00:30:22;;;;;;;7.33;3.37;;;;;;;-5.91;71.15;95682.67;1690213;85;21015;-72
2022/01/22 00:32:51;;;;;;;7.40;3.50;;;;;;;-6.00;71.21;95674.16;1690273;85;20995;-73
2022/01/22 00:35:21;;;;;;;9.83;3.60;;;;;;;-6.05;71.25;95664.08;1690335;85;21019;-72
2022/01/22 00:37:50;;;;;;;7.60;2.57;;;;;;;-6.05;71.44;95670.91;1690179;84;21454;-72
2022/01/22 00:40:18;;;;;;;8.97;3.67;;;;;;;-6.29;70.94;95666.42;1690214;84;21035;-72
2022/01/22 00:42:47;;;;;;;7.67;2.90;;;;;;;-6.37;71.45;95672.89;1690324;85;21011;-72
2022/01/22 00:45:15;;;;;;;6.47;2.50;;;;;;;-6.42;71.25;95675.23;1690351;85;21011;-72
2022/01/22 00:47:42;;;;;;;3.97;2.60;;;;;;;-6.63;71.07;95669.95;1690286;84;21484;-72
2022/01/22 00:50:13;;;;;;;7.20;3.57;;;;;;;-6.83;71.40;95666.83;1690501;85;21035;-73
2022/01/22 00:52:41;;;;;;;6.33;2.67;;;;;;;-6.96;71.71;95664.95;1690170;85;21379;-72
2022/01/22 00:55:09;;;;;;;6.97;3.30;;;;;;;-7.12;71.70;95661.58;1689879;85;21126;-72
2022/01/22 00:57:36;;;;;;;6.17;2.90;;;;;;;-7.24;71.97;95660.14;1690312;84;20971;-73
2022/01/22 01:00:10;;;;;;;5.40;2.80;;;;;;;-7.28;72.46;95650.94;1690569;84;21065;-73
2022/01/22 01:02:38;;;;;;;8.07;3.20;;;;;;;-7.41;72.50;95660.60;1690310;85;20991;-72
2022/01/22 01:05:08;;;;;;;6.77;3.10;;;;;;;-7.49;72.01;95659.72;1690210;85;21043;-73
2022/01/22 01:07:34;;;;;;;6.40;3.50;;;;;;;-7.59;72.66;95658.36;1690213;85;21520;-73
2022/01/22 01:10:03;;;;;;;5.67;2.60;;;;;;;-7.63;73.12;95652.62;1690258;85;21071;-73
2022/01/22 01:12:30;;;;;;;6.27;2.67;;;;;;;-7.82;72.44;95658.88;1690333;85;21003;-73
2022/01/22 01:15:14;;;;;;;5.10;3.33;;;;;;;-7.98;72.75;95654.64;1690077;85;21564;-73
2022/01/22 01:33:53;;;;;;;6.00;3.00;;;;;;;-8.31;73.09;95628.62;1690363;84;21050;-72
2022/01/22 01:36:14;;;;;;;5.17;2.73;;;;;;;-8.36;73.54;95615.11;1688416;85;20999;-72
2022/01/22 01:38:45;;;;;;;11.33;3.23;;;;;;;-8.38;73.74;95612.86;1690195;85;21046;-72
2022/01/22 01:41:20;;;;;;;11.23;3.43;;;;;;;-8.30;74.06;95610.30;1689879;85;21043;-72
2022/01/22 01:43:38;;;;;;;5.70;2.87;;;;;;;-8.34;73.10;95606.70;1688321;85;21473;-72
2022/01/22 01:46:16;;;;;;;6.27;3.27;;;;;;;-8.53;72.77;95607.83;1616317;88;21094;-72
2022/01/22 01:48:43;;;;;;;7.00;3.00;;;;;;;-8.67;73.19;95607.47;1690330;85;21032;-72
2022/01/22 01:51:10;;;;;;;4.27;2.57;;;;;;;-8.74;72.72;95598.20;1690078;85;21513;-73
2022/01/22 01:59:01;;;;;;;5.83;2.97;;;;;;;-8.79;74.59;95584.70;1690166;85;21039;-72
2022/01/22 02:01:28;;;;;;;7.07;2.80;;;;;;;-8.82;74.02;95577.73;1690244;85;21046;-72
2022/01/22 02:03:54;;;;;;;3.57;2.50;;;;;;;-8.93;73.77;95570.73;1690172;85;21054;-72
2022/01/22 02:06:22;;;;;;;8.50;2.63;;;;;;;-8.91;74.18;95564.84;1690064;85;21054;-72
2022/01/22 02:08:49;;;;;;;7.73;2.70;;;;;;;-8.91;74.21;95556.77;1690186;85;21082;-72
2022/01/22 02:11:19;;;;;;;3.97;2.50;;;;;;;-8.92;73.70;95557.55;1689736;85;21070;-72
2022/01/22 02:24:52;;;;;;;6.70;2.70;;;;;;;-9.49;73.30;95571.03;1690171;85;21582;-72
2022/01/22 02:27:19;;;;;;;12.53;2.63;;;;;;;-9.51;74.35;95576.84;1690269;85;21461;-72
2022/01/22 02:29:46;;;;;;;5.07;3.30;;;;;;;-9.58;73.97;95580.72;1660812;85;21066;-72
2022/01/22 02:35:12;;;;;;;7.93;3.63;;;;;;;-9.77;74.64;95580.47;1690157;85;21548;-72
2022/01/22 02:37:38;;;;;;;6.37;3.20;;;;;;;-9.72;74.91;95582.49;1689114;85;21031;-72
2022/01/22 02:40:16;;;;;;;6.67;3.23;;;;;;;-9.85;73.90;95582.55;1689551;85;21051;-72
2022/01/22 02:42:39;;;;;;;4.40;2.00;;;;;;;-9.99;73.76;95583.04;1689380;85;21119;-72
2022/01/22 02:45:10;;;;;;;4.23;2.13;;;;;;;-10.03;74.03;95588.37;1690438;85;21043;-72
2022/01/22 02:47:37;;;;;;;3.47;1.23;;;;;;;-10.16;74.43;95587.54;1690225;85;21000;-72
2022/01/22 02:50:05;;;;;;;4.20;2.17;;;;;;;-10.26;74.40;95576.78;1690285;85;21016;-72
2022/01/22 02:52:32;;;;;;;8.40;3.23;;;;;;;-10.24;75.07;95576.88;1690087;85;21461;-72
2022/01/22 02:55:00;;;;;;;4.17;2.00;;;;;;;-10.26;75.44;95572.08;1689816;85;21588;-72
2022/01/22 02:57:31;;;;;;;12.90;5.73;;;;;;;-10.23;75.25;95567.15;1690157;85;21082;-72
2022/01/22 02:59:55;;;;;;;10.20;5.20;;;;;;;-10.39;75.26;95567.08;1689953;85;21528;-72
2022/01/22 03:02:23;;;;;;;10.40;4.90;;;;;;;-10.50;74.79;95565.17;1690091;85;21115;-72
2022/01/22 03:04:49;;;;;;;4.93;2.47;;;;;;;-10.59;74.69;95555.27;1690152;85;21079;-72
2022/01/22 03:07:16;;;;;;;6.90;2.90;;;;;;;-10.61;74.94;95545.77;1690022;85;21050;-72
2022/01/22 03:09:45;;;;;;;10.60;3.73;;;;;;;-10.58;75.48;95557.06;1690149;85;21078;-72
2022/01/22 03:12:32;;;;;;;7.53;2.93;;;;;;;-10.53;75.42;95556.03;1689986;85;21034;-72
2022/01/22 03:17:51;;;;;;;7.00;3.07;;;;;;;-10.53;76.01;95554.39;1690147;85;21540;-72
2022/01/22 03:20:21;;;;;;;9.30;3.37;;;;;;;-10.48;75.55;95550.84;1686871;85;21088;-72
2022/01/22 03:27:52;;;;;;;8.87;2.97;;;;;;;-10.53;75.04;95560.77;1704910;84;21084;-73
2022/01/22 03:30:20;;;;;;;9.43;2.70;;;;;;;-10.61;75.18;95554.30;1705136;84;21548;-72
2022/01/22 03:32:50;;;;;;;4.87;2.37;;;;;;;-10.50;76.00;95549.47;1705096;84;21086;-72
2022/01/22 03:37:51;;;;;;;66.70;22.40;;;;;;;-10.40;75.63;95534.32;1705127;84;21137;-72
2022/01/22 03:40:22;;;;;;;63.60;21.93;;;;;;;-10.43;75.89;95531.97;1705306;84;21475;-72
2022/01/22 03:42:52;;;;;;;73.00;22.87;;;;;;;-10.45;75.57;95528.07;1705243;84;21026;-73
2022/01/22 03:45:21;;;;;;;89.43;27.00;;;;;;;-10.50;75.68;95532.89;1705276;84;21046;-72
2022/01/22 03:47:49;;;;;;;67.10;21.93;;;;;;;-10.44;76.33;95537.88;1705298;84;21575;-72
2022/01/22 03:50:19;;;;;;;38.00;11.83;;;;;;;-10.30;76.16;95524.27;1705292;84;21037;-72
2022/01/22 03:52:47;;;;;;;18.30;6.27;;;;;;;-10.18;76.40;95527.48;1705382;84;21042;-72
2022/01/22 03:56:04;;;;;;;17.23;6.07;;;;;;;-10.14;76.12;95520.50;1705362;84;20998;-72
2022/01/22 03:58:02;;;;;;;42.97;14.43;;;;;;;-10.12;76.27;95522.75;1694426;84;21034;-72
2022/01/22 04:00:30;;;;;;;42.50;17.37;;;;;;;-10.03;76.33;95523.30;1677697;84;21045;-72
2022/01/22 04:06:00;;;;;;;11.07;4.60;;;;;;;-9.69;76.37;95516.27;1676951;84;21018;-72
2022/01/22 04:08:17;;;;;;;6.60;4.03;;;;;;;-9.46;76.72;95511.17;1701143;84;21049;-72
2022/01/22 04:10:39;;;;;;;15.53;5.80;;;;;;;-9.30;76.50;95503.95;1703602;84;21038;-72
2022/01/22 04:13:10;;;;;;;9.83;4.03;;;;;;;-8.99;76.80;95501.80;1705468;84;21006;-72
2022/01/22 04:15:38;;;;;;;11.70;5.77;;;;;;;-8.72;76.71;95501.09;1704866;84;21185;-72
2022/01/22 04:26:42;;;;;;;5.20;2.37;;;;;;;-7.84;74.76;95476.56;1690029;85;21008;-72
2022/01/22 04:29:01;;;;;;;4.13;2.93;;;;;;;-7.65;73.90;95477.45;1688004;85;21508;-72
2022/01/22 04:31:27;;;;;;;8.60;3.50;;;;;;;-7.53;73.69;95473.33;1690436;85;21038;-72
2022/01/22 04:33:55;;;;;;;8.33;3.80;;;;;;;-7.40;73.25;95476.95;1690297;85;21054;-72
2022/01/22 04:36:21;;;;;;;7.20;3.60;;;;;;;-7.30;73.00;95475.29;1690355;85;21454;-72
2022/01/22 04:38:48;;;;;;;10.50;4.60;;;;;;;-7.22;72.72;95474.37;1689903;85;21553;-72
2022/01/22 04:41:16;;;;;;;14.70;4.13;;;;;;;-7.20;72.61;95478.76;1690444;85;21023;-72
2022/01/22 04:43:43;;;;;;;7.97;3.77;;;;;;;-7.15;72.62;95477.70;1690223;85;21162;-72
2022/01/22 04:46:20;;;;;;;8.83;4.30;;;;;;;-7.13;72.07;95475.18;1690147;85;21054;-72
2022/01/22 04:56:38;;;;;;;9.70;4.50;;;;;;;-6.93;70.96;95464.15;1690361;85;21590;-73
2022/01/22 04:59:05;;;;;;;7.73;3.63;;;;;;;-6.87;70.50;95464.45;1690364;85;21030;-72
2022/01/22 05:01:31;;;;;;;7.17;3.43;;;;;;;-6.82;70.39;95467.23;1690226;85;21500;-72
2022/01/22 05:04:03;;;;;;;5.80;2.83;;;;;;;-6.78;69.81;95461.41;1687699;85;20999;-73
2022/01/22 05:06:31;;;;;;;8.37;4.03;;;;;;;-6.76;69.66;95458.51;1643212;85;21046;-73
2022/01/22 05:09:08;;;;;;;7.30;4.00;;;;;;;-6.76;69.88;95455.53;1664960;85;21046;-73
2022/01/22 05:11:37;;;;;;;7.80;3.40;;;;;;;-6.71;70.14;95453.59;1686706;85;21138;-72
2022/01/22 05:14:04;;;;;;;9.37;3.80;;;;;;;-6.68;70.14;95447.30;1690262;85;21050;-72
2022/01/22 05:16:31;;;;;;;7.57;3.53;;;;;;;-6.68;70.03;95462.28;1690095;85;21106;-72
2022/01/22 05:19:03;;;;;;;7.83;3.77;;;;;;;-6.67;70.34;95452.52;1690291;85;21521;-72
2022/01/22 05:21:28;;;;;;;8.93;3.87;;;;;;;-6.66;70.49;95454.26;1689642;85;21528;-72
2022/01/22 05:23:58;;;;;;;4.97;3.27;;;;;;;-6.69;70.34;95459.27;1693921;84;21102;-72
2022/01/22 05:37:40;;;;;;;17.47;5.47;;;;;;;-6.71;70.82;95453.59;1697372;84;21090;-73
2022/01/22 05:40:09;;;;;;;7.60;3.80;;;;;;;-6.65;70.30;95448.34;1698083;84;21556;-72
2022/01/22 05:42:36;;;;;;;6.37;3.50;;;;;;;-6.67;69.96;95455.49;1698147;84;21089;-72
2022/01/22 05:45:05;;;;;;;10.60;4.10;;;;;;;-6.80;69.97;95461.77;1698220;84;21003;-72
2022/01/22 05:47:32;;;;;;;15.17;6.03;;;;;;;-6.93;70.38;95455.58;1698046;84;21093;-72
2022/01/22 05:50:01;;;;;;;14.40;5.63;;;;;;;-6.98;70.41;95451.52;1698133;84;20974;-72
2022/01/22 05:52:38;;;;;;;12.13;4.40;;;;;;;-6.96;70.87;95451.19;1698355;84;21033;-72
2022/01/22 06:00:16;;;;;;;8.00;2.47;;;;;;;-6.98;71.35;95462.69;1696374;84;21039;-72
2022/01/22 06:02:46;;;;;;;5.57;2.30;;;;;;;-6.95;71.47;95463.23;1698034;84;21110;-72
2022/01/22 06:05:13;;;;;;;3.20;2.13;;;;;;;-6.82;72.00;95460.81;1698137;84;21089;-72
2022/01/22 06:07:40;;;;;;;1.93;1.20;;;;;;;-6.71;72.02;95456.16;1698132;84;21078;-72
2022/01/22 06:10:17;;;;;;;4.13;2.40;;;;;;;-6.64;72.34;95451.36;1697475;84;21046;-73
2022/01/22 06:12:58;;;;;;;5.30;2.77;;;;;;;-6.58;72.10;95444.33;1698265;84;21061;-73
2022/01/22 06:15:16;;;;;;;7.62;4.03;;;;;;;-6.62;71.75;95451.44;1696358;84;21066;-72
2022/01/22 06:17:45;;;;;;;7.00;3.20;;;;;;;-6.61;72.40;95453.19;1694308;84;21519;-72
2022/01/22 06:20:13;;;;;;;11.07;5.10;;;;;;;-6.57;72.11;95459.81;1698144;84;21622;-72
2022/01/22 06:22:41;;;;;;;15.17;6.37;;;;;;;-6.61;71.85;95474.59;1698119;84;20979;-73
2022/01/22 06:25:09;;;;;;;13.47;6.20;;;;;;;-6.61;72.06;95473.30;1697953;84;21111;-73
2022/01/22 06:27:36;;;;;;;11.73;6.70;;;;;;;-6.64;71.97;95471.02;1698078;84;21109;-72
2022/01/22 06:30:05;;;;;;;10.13;5.70;;;;;;;-6.63;72.51;95476.20;1698152;84;21087;-72
2022/01/22 06:32:33;;;;;;;15.90;8.40;;;;;;;-6.60;72.41;95475.45;1697607;84;21090;-72
2022/01/22 06:35:02;;;;;;;19.90;9.40;;;;;;;-6.58;72.04;95487.95;1698149;84;21050;-72
2022/01/22 06:37:29;;;;;;;11.87;5.80;;;;;;;-6.61;72.16;95487.83;1698009;84;21007;-72
2022/01/22 06:42:50;;;;;;;8.03;4.33;;;;;;;-6.45;72.63;95491.94;1664761;84;21015;-73
2022/01/22 06:45:21;;;;;;;6.47;3.87;;;;;;;-6.24;72.53;95483.04;1695729;84;21058;-73
2022/01/22 06:47:52;;;;;;;8.00;4.20;;;;;;;-6.17;72.24;95485.06;1697285;84;21063;-73
2022/01/22 06:50:21;;;;;;;8.13;4.53;;;;;;;-6.11;72.12;95487.47;1697135;84;21058;-73
2022/01/22 06:52:58;;;;;;;7.13;3.47;;;;;;;-6.18;72.21;95481.59;1698118;84;21058;-73
2022/01/22 06:55:43;;;;;;;10.83;5.07;;;;;;;-6.13;71.93;95477.94;1697664;84;21127;-73
2022/01/22 06:58:03;;;;;;;4.83;2.73;;;;;;;-6.20;71.66;95478.11;1671470;84;21573;-73
2022/01/22 07:00:30;;;;;;;9.80;4.67;;;;;;;-6.22;71.79;95477.57;1698120;84;21019;-73
2022/01/22 07:02:59;;;;;;;13.20;5.67;;;;;;;-6.21;71.44;95478.03;1696683;84;21061;-73
2022/01/22 07:05:26;;;;;;;11.13;4.50;;;;;;;-6.21;71.35;95476.34;1698098;84;21046;-73
2022/01/22 07:07:55;;;;;;;10.43;4.47;;;;;;;-6.21;71.50;95480.59;1696455;84;21046;-73
2022/01/22 07:10:22;;;;;;;10.77;5.00;;;;;;;-6.13;71.63;95485.65;1698239;84;21066;-73
2022/01/22 07:12:48;;;;;;;19.83;7.97;;;;;;;-5.91;71.37;95494.70;1698198;84;21046;-73
2022/01/22 07:15:15;;;;;;;15.23;8.67;;;;;;;-5.71;71.07;95496.83;1698092;84;21129;-72
2022/01/22 07:17:44;;;;;;;11.03;5.23;;;;;;;-5.58;70.93;95496.92;1698596;84;20971;-72
2022/01/22 07:20:18;;;;;;;7.67;4.13;;;;;;;-5.44;70.41;95497.09;1698441;84;21039;-73
2022/01/22 07:22:52;;;;;;;8.87;3.27;;;;;;;-5.31;69.68;95498.88;1698332;84;21031;-73
2022/01/22 07:25:20;;;;;;;13.13;6.00;;;;;;;-5.18;69.22;95493.39;1694224;84;21129;-73
2022/01/22 07:27:47;;;;;;;7.73;4.87;;;;;;;-4.90;69.04;95487.63;1705220;84;21078;-73
2022/01/22 07:30:14;;;;;;;7.80;4.10;;;;;;;-4.59;67.92;95487.11;1705006;84;21053;-73
2022/01/22 07:32:43;;;;;;;6.87;3.97;;;;;;;-4.43;67.03;95482.52;1705300;84;21102;-73
2022/01/22 07:35:14;;;;;;;7.03;3.90;;;;;;;-4.33;66.17;95483.31;1677184;84;21081;-73
2022/01/22 07:37:41;;;;;;;7.13;3.43;;;;;;;-4.17;65.98;95486.89;1705709;84;21065;-73
2022/01/22 07:40:11;;;;;;;3.13;1.67;;;;;;;-3.98;65.68;95476.84;1704165;84;21015;-74
2022/01/22 07:42:43;;;;;;;5.22;2.67;;;;;;;-3.77;64.44;95483.55;1703084;84;21055;-74
2022/01/22 07:45:28;;;;;;;5.07;2.23;;;;;;;-3.64;63.55;95478.40;1705381;84;21003;-74
2022/01/22 07:47:57;;;;;;;3.97;1.70;;;;;;;-3.51;63.55;95480.13;1703762;84;21484;-74
2022/01/22 07:50:26;;;;;;;9.60;5.00;;;;;;;-3.43;62.85;95480.80;1701170;84;21583;-74
2022/01/22 07:52:53;;;;;;;6.23;2.70;;;;;;;-3.25;63.65;95486.58;1705372;84;21050;-74
2022/01/22 07:55:20;;;;;;;10.80;3.93;;;;;;;-3.17;62.32;95481.67;1705194;84;21097;-73
2022/01/22 07:57:48;;;;;;;3.70;2.00;;;;;;;-3.28;61.84;95486.07;1705036;84;21527;-74
2022/01/22 08:00:17;;;;;;;6.90;3.10;;;;;;;-3.18;61.84;95484.64;1677350;84;21575;-74
2022/01/22 08:02:44;;;;;;;4.63;2.90;;;;;;;-3.09;61.82;95492.68;1677570;84;21562;-74
2022/01/22 08:05:19;;;;;;;4.10;2.07;;;;;;;-3.08;61.00;95495.71;1700589;84;21078;-73
2022/01/22 08:07:50;;;;;;;7.83;3.00;;;;;;;-3.02;61.08;95503.19;1669309;84;21050;-74
2022/01/22 08:10:33;;;;;;;7.37;2.60;;;;;;;-3.02;61.48;95497.63;1644044;87;21058;-74
2022/01/22 08:13:00;;;;;;;3.83;1.67;;;;;;;-2.88;61.21;95495.47;1672358;86;21121;-74
2022/01/22 08:15:27;;;;;;;10.43;3.47;;;;;;;-2.76;61.50;95500.14;1705253;84;21026;-75
2022/01/22 08:17:55;;;;;;;6.73;2.70;;;;;;;-2.79;60.33;95506.09;1704823;84;21049;-74
2022/01/22 08:20:24;;;;;;;5.20;2.83;;;;;;;-2.77;60.77;95495.80;1677342;84;21050;-74
2022/01/22 08:22:52;;;;;;;6.40;2.67;;;;;;;-2.64;60.50;95500.52;1705163;84;21026;-75
2022/01/22 08:25:40;;;;;;;6.87;2.83;;;;;;;-2.63;60.14;95497.09;1705007;84;21508;-73
2022/01/22 08:30:56;;;;;;;3.97;1.63;;;;;;;-2.41;60.48;95509.83;1705409;84;21026;-73
2022/01/22 08:33:34;;;;;;;4.30;1.93;;;;;;;-2.53;60.63;95508.16;1705415;84;21580;-74
2022/01/22 08:35:59;;;;;;;4.53;2.23;;;;;;;-2.56;60.89;95508.08;1704596;84;20991;-74
2022/01/22 08:38:31;;;;;;;9.47;3.43;;;;;;;-2.54;61.74;95514.17;1704796;84;21093;-74
2022/01/22 08:40:58;;;;;;;6.70;3.27;;;;;;;-2.39;61.56;95508.59;1705197;84;21022;-74
2022/01/22 08:43:27;;;;;;;5.37;2.70;;;;;;;-2.13;60.98;95512.34;1705559;84;21125;-74
2022/01/22 08:45:55;;;;;;;6.60;3.17;;;;;;;-2.02;60.22;95501.45;1705219;84;21030;-74
2022/01/22 08:48:23;;;;;;;2.93;1.80;;;;;;;-2.10;60.00;95510.70;1704974;84;21543;-73
2022/01/22 08:50:55;;;;;;;4.03;1.87;;;;;;;-2.07;61.08;95517.67;1705501;84;21625;-73
2022/01/22 08:53:22;;;;;;;4.03;2.20;;;;;;;-2.26;60.82;95514.57;1705328;84;21078;-73
2022/01/22 08:55:48;;;;;;;3.07;2.30;;;;;;;-2.45;61.86;95525.19;1704930;84;21022;-73
2022/01/22 08:58:16;;;;;;;5.33;2.40;;;;;;;-2.33;61.28;95528.14;1677414;84;21075;-73
2022/01/22 09:00:50;;;;;;;3.53;2.10;;;;;;;-2.29;61.60;95531.28;1703167;84;21046;-73
2022/01/22 09:03:20;;;;;;;2.23;1.70;;;;;;;-2.25;61.38;95522.77;1704685;84;21046;-73
2022/01/22 09:05:53;;;;;;;3.52;2.17;;;;;;;-2.29;60.90;95534.29;1669278;84;21437;-73
2022/01/22 09:08:40;;;;;;;3.50;2.03;;;;;;;-2.61;60.78;95540.22;1705241;84;21042;-74
2022/01/22 09:11:08;;;;;;;6.23;2.50;;;;;;;-2.70;60.83;95541.22;1704174;84;21513;-74
2022/01/22 09:13:54;;;;;;;8.07;4.00;;;;;;;-2.70;61.09;95541.22;1705053;84;21034;-74
2022/01/22 09:16:22;;;;;;;7.27;2.97;;;;;;;-2.67;61.51;95543.92;1705327;84;21057;-74
2022/01/22 09:18:50;;;;;;;7.80;5.53;;;;;;;-2.65;61.58;95542.66;1705289;84;21105;-74
2022/01/22 09:21:17;;;;;;;8.10;3.83;;;;;;;-2.54;61.32;95550.34;1705274;83;20970;-73
2022/01/22 09:23:44;;;;;;;3.43;2.37;;;;;;;-2.45;61.02;95557.48;1705002;84;21006;-74
2022/01/22 09:26:12;;;;;;;4.23;2.60;;;;;;;-2.23;60.51;95553.84;1704773;84;21070;-74
2022/01/22 09:28:39;;;;;;;6.50;2.90;;;;;;;-2.07;60.15;95557.74;1705212;84;20995;-73
2022/01/22 09:31:06;;;;;;;7.87;2.77;;;;;;;-1.94;58.98;95555.09;1705149;84;21078;-74
2022/01/22 09:33:34;;;;;;;3.80;2.20;;;;;;;-2.07;58.66;95551.28;1705122;84;21038;-74
2022/01/22 09:36:15;;;;;;;5.50;2.50;;;;;;;-2.05;58.17;95554.37;1704183;84;21010;-74
2022/01/22 09:39:00;;;;;;;4.50;2.33;;;;;;;-1.99;57.92;95561.03;1705113;84;21046;-74
2022/01/22 09:41:32;;;;;;;5.17;2.63;;;;;;;-1.68;57.24;95555.84;1703354;84;21022;-73
2022/01/22 09:44:01;;;;;;;6.53;2.90;;;;;;;-1.54;56.55;95554.09;1703376;84;21102;-73
2022/01/22 09:46:30;;;;;;;9.30;4.93;;;;;;;-1.44;56.47;95549.14;1687146;84;21014;-73
2022/01/22 09:49:12;;;;;;;8.13;4.40;;;;;;;-1.62;56.54;95555.57;1703897;84;21161;-73
2022/01/22 09:51:45;;;;;;;5.83;3.37;;;;;;;-1.70;56.54;95558.37;1674268;84;21037;-73
2022/01/22 09:54:32;;;;;;;7.70;2.67;;;;;;;-1.80;56.83;95563.70;1702143;84;21046;-73
2022/01/22 09:57:03;;;;;;;6.00;3.07;;;;;;;-1.94;56.82;95555.09;1700572;84;21009;-74
2022/01/22 09:59:36;;;;;;;7.77;4.03;;;;;;;-2.35;56.48;95565.97;1703693;84;21093;-73
2022/01/22 10:02:14;;;;;;;7.03;3.27;;;;;;;-2.45;58.13;95566.10;1687021;84;21077;-74
2022/01/22 10:04:48;;;;;;;7.87;2.90;;;;;;;-2.26;57.39;95566.26;1677334;84;21512;-74
2022/01/22 10:07:33;;;;;;;3.43;1.87;;;;;;;-2.28;56.28;95562.75;1705455;84;21022;-73
2022/01/22 10:10:09;;;;;;;4.93;2.17;;;;;;;-2.02;56.86;95551.86;1704929;84;21564;-74
2022/01/22 10:12:49;;;;;;;3.80;1.50;;;;;;;-1.44;55.94;95553.02;1705188;84;21085;-73
2022/01/22 10:15:35;;;;;;;4.80;2.83;;;;;;;-0.59;54.77;95543.94;1704790;84;21046;-71
2022/01/22 10:18:04;;;;;;;6.10;3.00;;;;;;;0.00;54.02;95538.34;1704119;84;21045;-71
2022/01/22 10:20:38;;;;;;;4.53;2.43;;;;;;;0.73;51.42;95529.81;1705376;84;21033;-70
2022/01/22 10:23:19;;;;;;;4.83;2.47;;;;;;;1.17;48.30;95536.19;1704786;84;21050;-71
2022/01/22 10:25:55;;;;;;;4.50;2.73;;;;;;;1.22;46.44;95542.77;1678398;84;21014;-70
2022/01/22 10:28:27;;;;;;;5.83;2.63;;;;;;;1.71;46.41;95534.41;1704364;84;21042;-71
2022/01/22 10:30:59;;;;;;;6.87;2.60;;;;;;;2.41;45.69;95529.69;1703441;84;21022;-71
2022/01/22 10:33:30;;;;;;;4.07;1.63;;;;;;;2.92;42.62;95532.41;1701761;84;21106;-71
2022/01/22 10:36:20;;;;;;;7.30;3.67;;;;;;;2.67;40.09;95533.87;1704983;84;21061;-74
2022/01/22 10:39:12;;;;;;;7.17;3.73;;;;;;;3.12;41.50;95532.59;1705460;84;21512;-72
2022/01/22 10:41:43;;;;;;;5.73;4.13;;;;;;;3.43;40.08;95530.70;1702411;84;21073;-70
2022/01/22 10:44:21;;;;;;;6.50;4.07;;;;;;;3.58;40.18;95531.25;1704824;84;21090;-70
2022/01/22 10:46:51;;;;;;;3.93;2.53;;;;;;;2.98;38.32;95547.69;1704828;84;21057;-70
2022/01/22 10:49:26;;;;;;;6.60;3.30;;;;;;;2.97;38.74;95545.95;1704879;84;21065;-70
2022/01/22 10:51:59;;;;;;;4.33;2.80;;;;;;;2.44;38.39;95541.00;1705076;84;21552;-73
2022/01/22 10:54:35;;;;;;;4.47;2.43;;;;;;;2.29;38.63;95540.82;1705120;84;21041;-74
2022/01/22 10:57:17;;;;;;;3.43;2.50;;;;;;;2.22;39.16;95542.89;1705103;84;21002;-74
2022/01/22 10:59:50;;;;;;;8.23;4.90;;;;;;;2.22;40.42;95543.80;1705127;84;21054;-74
2022/01/22 11:02:20;;;;;;;7.83;5.15;;;;;;;2.04;40.61;95550.94;1705444;84;21006;-74
2022/01/22 11:04:47;;;;;;;5.67;2.57;;;;;;;1.81;41.93;95553.62;1703283;84;21593;-73
2022/01/22 11:07:19;;;;;;;4.00;2.23;;;;;;;1.37;42.38;95551.23;1705545;84;20983;-73
2022/01/22 11:09:46;;;;;;;9.83;6.27;;;;;;;0.99;43.49;95551.05;1705208;84;21172;-73
2022/01/22 11:12:14;;;;;;;8.13;3.57;;;;;;;0.91;43.87;95550.05;1704986;84;21086;-74
2022/01/22 11:14:42;;;;;;;4.43;2.90;;;;;;;0.74;44.89;95547.56;1705125;84;21050;-73
2022/01/22 11:17:09;;;;;;;10.47;7.57;;;;;;;0.28;46.03;95544.06;1705190;84;21057;-74
2022/01/22 11:19:39;;;;;;;8.23;4.57;;;;;;;0.13;45.50;95549.41;1705043;84;21050;-74
2022/01/22 11:22:18;;;;;;;8.80;4.50;;;;;;;0.04;45.68;95551.80;1705159;84;21074;-74
2022/01/22 11:24:48;;;;;;;5.20;3.37;;;;;;;-0.03;46.13;95557.27;1703145;84;21069;-74
2022/01/22 11:27:19;;;;;;;3.47;2.57;;;;;;;-0.31;46.39;95560.98;1690063;84;21070;-74
2022/01/22 11:29:57;;;;;;;4.83;2.67;;;;;;;-0.39;46.55;95563.83;1690192;84;21055;-74
2022/01/22 11:32:32;;;;;;;6.87;3.00;;;;;;;-0.47;46.46;95564.09;1690236;84;21035;-74
2022/01/22 11:35:03;;;;;;;7.37;3.50;;;;;;;-0.55;46.99;95554.84;1690280;84;21043;-74
2022/01/22 11:37:46;;;;;;;3.90;2.40;;;;;;;-0.68;47.25;95561.84;1690265;84;21035;-74
2022/01/22 11:40:21;;;;;;;6.53;2.60;;;;;;;-0.67;48.13;95556.71;1689814;85;21540;-74
2022/01/22 11:43:05;;;;;;;5.43;2.40;;;;;;;-0.67;47.32;95554.12;1689402;85;21545;-74
2022/01/22 11:45:36;;;;;;;5.83;2.57;;;;;;;-0.67;46.68;95551.95;1689628;85;21046;-74
2022/01/22 11:48:24;;;;;;;2.98;2.12;;;;;;;-0.73;46.24;95566.94;1690254;84;21039;-74
2022/01/22 11:51:16;;;;;;;6.50;2.00;;;;;;;-0.91;47.45;95557.41;1689973;85;21169;-74
2022/01/22 11:53:55;;;;;;;6.03;2.77;;;;;;;-0.73;48.52;95555.67;1690144;84;21078;-73
2022/01/22 11:56:27;;;;;;;7.37;3.47;;;;;;;-0.48;49.54;95570.99;1690413;84;21034;-73
2022/01/22 11:59:04;;;;;;;4.60;2.10;;;;;;;-0.37;47.57;95564.75;1690428;85;21075;-73
2022/01/22 12:01:51;;;;;;;6.13;3.40;;;;;;;-0.61;47.15;95565.04;1690406;85;21034;-74
2022/01/22 12:04:21;;;;;;;9.80;5.23;;;;;;;-0.48;47.32;95564.52;1690399;84;21500;-74
2022/01/22 12:07:09;;;;;;;7.37;4.03;;;;;;;-0.49;47.44;95566.63;1690339;84;21011;-74
2022/01/22 12:09:53;;;;;;;6.20;2.93;;;;;;;-0.46;48.27;95567.13;1689943;84;21125;-74
2022/01/22 12:15:23;;;;;;;3.57;2.13;;;;;;;-0.85;48.74;95564.48;1690464;84;21058;-74
2022/01/22 12:18:04;;;;;;;6.13;3.13;;;;;;;-0.97;48.85;95565.91;1690347;84;20987;-74
2022/01/22 12:23:32;;;;;;;4.17;1.80;;;;;;;-1.15;48.72;95561.56;1690230;84;21501;-74
2022/01/22 12:26:02;;;;;;;5.93;2.23;;;;;;;-1.34;49.72;95557.61;1688961;85;21042;-74
2022/01/22 12:28:45;;;;;;;5.27;2.87;;;;;;;-1.50;51.74;95566.68;1690201;84;21090;-74
2022/01/22 12:31:19;;;;;;;3.97;2.27;;;;;;;-1.59;51.35;95562.54;1690376;85;21565;-73
2022/01/22 12:33:53;;;;;;;4.17;2.50;;;;;;;-1.48;52.30;95565.02;1690398;84;21544;-73
2022/01/22 12:36:39;;;;;;;2.80;2.33;;;;;;;-1.37;52.12;95565.30;1690467;84;21055;-74
2022/01/22 12:39:11;;;;;;;4.97;2.53;;;;;;;-1.25;51.95;95571.22;1690205;85;21050;-73
2022/01/22 12:46:54;;;;;;;6.80;3.40;;;;;;;-0.96;51.35;95570.66;1690289;85;21047;-74
2022/01/22 12:49:23;;;;;;;2.07;1.50;;;;;;;-0.97;50.96;95574.09;1690269;84;21083;-74
2022/01/22 12:51:57;;;;;;;4.13;2.53;;;;;;;-1.36;51.13;95567.03;1690364;84;21074;-74
2022/01/22 12:54:43;;;;;;;4.67;2.80;;;;;;;-1.68;51.90;95568.78;1690026;84;21066;-74
2022/01/22 12:57:13;;;;;;;7.83;3.70;;;;;;;-1.92;53.08;95576.28;1690138;84;21101;-74
2022/01/22 13:02:42;;;;;;;6.77;3.70;;;;;;;-1.92;54.53;95585.33;1690259;84;21150;-74
2022/01/22 13:05:12;;;;;;;4.40;2.60;;;;;;;-2.12;55.54;95592.92;1690167;85;21043;-74
2022/01/22 13:07:47;;;;;;;5.90;3.87;;;;;;;-2.28;57.05;95591.59;1651393;85;21062;-74
2022/01/22 13:10:33;;;;;;;4.53;2.97;;;;;;;-2.28;56.91;95599.34;1648340;85;21078;-74
2022/01/22 13:13:04;;;;;;;7.00;3.20;;;;;;;-2.47;58.75;95598.79;1690235;85;21508;-73
2022/01/22 13:15:33;;;;;;;3.67;2.30;;;;;;;-2.55;58.78;95606.69;1690222;84;21089;-74
2022/01/22 13:18:04;;;;;;;6.17;3.20;;;;;;;-2.61;59.52;95604.80;1690352;84;21059;-74
2022/01/22 13:20:34;;;;;;;4.23;2.53;;;;;;;-2.58;59.30;95609.19;1690279;84;21007;-74
2022/01/22 13:23:16;;;;;;;10.63;5.93;;;;;;;-2.52;60.25;95613.66;1690282;84;21055;-74
2022/01/22 13:25:43;;;;;;;5.73;3.37;;;;;;;-2.43;61.12;95612.66;1689767;84;21054;-74
2022/01/22 13:28:12;;;;;;;6.30;2.50;;;;;;;-2.46;61.37;95620.33;1690038;84;21059;-74
2022/01/22 13:30:47;;;;;;;9.83;4.03;;;;;;;-2.62;62.32;95625.02;1689950;85;21118;-74
2022/01/22 13:33:24;;;;;;;5.80;3.75;;;;;;;-2.54;61.98;95625.67;1690043;85;21055;-74